Terminal Aerodrome Forecast
Issued by NWS Cleveland, OH

Home | Current Version | Previous Version | Text Only | Print | Product List | Glossary On
Versions: 1 2 3 4 5 6 7 8 9 10 11 12 13 14 15 16
631
FTUS41 KCLE 280532
TAFYNG
TAF
KYNG 280532Z 2806/2906 18006KT P6SM BKN250
     FM281700 20010KT P6SM BKN050 BKN250
     FM290000 18006KT P6SM SCT100=

USA.gov is the U.S. government's official web portal to all federal, state and local government web resources and services.